createdAt,value
2023-01-17T00:02:33.254Z,8.24
2023-01-17T00:05:53.953Z,8.15
2023-01-17T00:09:14.771Z,8.11
2023-01-17T00:12:16.986Z,8.18
2023-01-17T00:15:20.107Z,8.17
2023-01-17T00:18:22.382Z,8.22
2023-01-17T00:21:43.036Z,8.35
2023-01-17T00:25:03.834Z,8.46
2023-01-17T00:28:06.146Z,8.11
2023-01-17T00:31:09.440Z,8.23
2023-01-17T00:38:03.308Z,8.23
2023-01-17T00:41:37.134Z,8.37
2023-01-17T00:45:19.324Z,8.40
2023-01-17T00:49:11.980Z,8.27
2023-01-17T00:56:08.485Z,8.39
2023-01-17T00:59:45.616Z,8.63
2023-01-17T01:03:30.043Z,8.44
2023-01-17T01:06:56.219Z,8.41
2023-01-17T01:10:17.786Z,8.43
2023-01-17T01:17:54.878Z,8.39
2023-01-17T01:21:38.916Z,8.39
2023-01-17T01:25:20.027Z,8.61
2023-01-17T01:28:42.912Z,8.35
2023-01-17T01:36:14.811Z,8.56
2023-01-17T01:39:21.993Z,8.44
2023-01-17T01:56:14.307Z,8.10
2023-01-17T01:59:20.971Z,8.18
2023-01-17T02:02:23.378Z,8.08
2023-01-17T02:05:27.661Z,8.03
2023-01-17T02:08:30.189Z,7.95
2023-01-17T02:11:33.800Z,8.19
2023-01-17T02:14:35.978Z,8.29
2023-01-17T02:18:08.730Z,8.04
2023-01-17T02:21:35.082Z,8.11
2023-01-17T02:24:55.971Z,8.22
2023-01-17T02:28:19.835Z,8.35
2023-01-17T02:31:31.976Z,8.20
2023-01-17T02:34:47.572Z,8.25
2023-01-17T02:38:03.170Z,8.19
2023-01-17T02:41:08.896Z,8.21
2023-01-17T02:44:16.401Z,8.19
2023-01-17T02:47:27.259Z,8.18
2023-01-17T02:50:43.127Z,8.17
2023-01-17T02:54:05.541Z,8.24
2023-01-17T02:57:42.811Z,8.15
2023-01-17T03:01:06.913Z,8.29
2023-01-17T03:04:22.163Z,8.21
2023-01-17T03:07:26.483Z,8.37
2023-01-17T03:10:30.816Z,8.23
2023-01-17T03:13:33.023Z,8.17
2023-01-17T03:16:35.453Z,8.32
2023-01-17T03:19:37.834Z,8.11
2023-01-17T03:22:40.040Z,8.16
2023-01-17T03:25:42.220Z,8.18
2023-01-17T03:28:45.299Z,8.18
2023-01-17T03:31:47.480Z,8.27
2023-01-17T03:34:49.707Z,8.31
2023-01-17T03:38:14.809Z,8.29
2023-01-17T03:41:18.925Z,8.43
2023-01-17T03:44:22.897Z,8.13
2023-01-17T03:47:25.148Z,8.11
2023-01-17T03:50:27.423Z,8.14
2023-01-17T03:53:30.692Z,8.24
2023-01-17T03:56:32.819Z,8.24
2023-01-17T03:59:35.111Z,8.43
2023-01-17T04:02:37.330Z,8.39
2023-01-17T04:05:39.497Z,8.36
2023-01-17T04:08:41.778Z,8.27
2023-01-17T04:11:44.016Z,8.37
2023-01-17T04:14:46.154Z,8.45
2023-01-17T04:17:48.322Z,8.41
2023-01-17T04:20:51.553Z,8.20
2023-01-17T04:23:53.725Z,8.35
2023-01-17T04:26:55.930Z,8.27
2023-01-17T04:29:58.058Z,8.30
2023-01-17T04:33:00.347Z,8.23
2023-01-17T04:36:02.502Z,8.23
2023-01-17T04:39:04.841Z,8.34
2023-01-17T04:42:06.963Z,8.40
2023-01-17T04:45:09.447Z,8.48
2023-01-17T04:48:12.755Z,8.36
2023-01-17T04:51:15.279Z,8.36
2023-01-17T04:54:17.616Z,8.29
2023-01-17T04:57:20.137Z,8.31
2023-01-17T05:00:24.154Z,8.45
2023-01-17T05:03:26.992Z,8.46
2023-01-17T05:06:29.178Z,8.38
2023-01-17T05:09:31.679Z,8.28
2023-01-17T05:12:33.906Z,8.19
2023-01-17T05:15:36.448Z,8.40
2023-01-17T05:18:38.729Z,8.26
2023-01-17T05:21:40.905Z,8.35
2023-01-17T05:24:44.640Z,8.39
2023-01-17T05:27:46.829Z,8.41
2023-01-17T05:30:49.067Z,8.30
2023-01-17T05:33:54.229Z,8.44
2023-01-17T05:36:56.539Z,8.30
2023-01-17T05:39:58.687Z,8.03
2023-01-17T05:43:01.633Z,8.27
2023-01-17T05:46:06.414Z,8.40
2023-01-17T05:49:08.815Z,8.33
2023-01-17T05:52:10.903Z,8.25
2023-01-17T05:55:13.010Z,8.02
2023-01-17T05:58:17.369Z,8.03
2023-01-17T06:01:19.760Z,7.84
2023-01-17T06:04:22.041Z,7.85
2023-01-17T06:07:24.225Z,7.88
2023-01-17T06:10:27.016Z,7.77
2023-01-17T06:13:29.266Z,7.83
2023-01-17T06:16:31.362Z,7.56
2023-01-17T06:19:33.519Z,7.71
2023-01-17T06:22:35.651Z,7.69
2023-01-17T06:25:43.696Z,7.75
2023-01-17T06:28:45.891Z,7.71
2023-01-17T06:31:48.097Z,7.64
2023-01-17T06:34:50.302Z,7.69
2023-01-17T06:37:55.457Z,7.40
2023-01-17T06:41:00.260Z,7.38
2023-01-17T06:44:03.564Z,7.13
2023-01-17T06:47:05.732Z,7.50
2023-01-17T06:50:10.642Z,7.56
2023-01-17T06:53:12.975Z,7.33
2023-01-17T06:56:15.251Z,7.47
2023-01-17T06:59:17.394Z,7.31
2023-01-17T07:02:19.782Z,7.36
2023-01-17T07:05:22.587Z,7.38
2023-01-17T07:08:27.888Z,7.65
2023-01-17T07:11:31.472Z,7.50
2023-01-17T07:14:35.841Z,7.35
2023-01-17T07:17:38.659Z,7.35
2023-01-17T07:20:43.852Z,7.40
2023-01-17T07:23:46.296Z,7.35
2023-01-17T07:26:49.830Z,7.46
2023-01-17T07:29:54.127Z,7.40
2023-01-17T07:32:56.548Z,7.16
2023-01-17T07:35:58.939Z,7.17
2023-01-17T07:39:01.278Z,7.17
2023-01-17T07:42:03.474Z,7.25
2023-01-17T07:45:06.798Z,6.95
2023-01-17T07:48:10.543Z,7.28
2023-01-17T07:51:12.957Z,7.12
2023-01-17T07:54:15.307Z,7.22
2023-01-17T07:57:17.850Z,7.30
2023-01-17T08:00:20.601Z,7.14
2023-01-17T08:03:32.247Z,6.89
2023-01-17T08:06:34.558Z,7.19
2023-01-17T08:09:36.823Z,7.31
2023-01-17T08:12:39.001Z,7.52
2023-01-17T08:15:41.282Z,7.22
2023-01-17T08:18:43.571Z,7.35
2023-01-17T08:21:45.802Z,7.44
2023-01-17T08:24:48.589Z,7.48
2023-01-17T08:27:57.278Z,7.61
2023-01-17T08:31:08.507Z,7.58
2023-01-17T08:34:10.847Z,7.56
2023-01-17T08:37:14.477Z,7.69
2023-01-17T08:40:20.884Z,7.53
2023-01-17T08:43:23.171Z,7.44
2023-01-17T08:46:25.776Z,7.40
2023-01-17T08:49:28.655Z,7.64
2023-01-17T08:52:30.990Z,7.64
2023-01-17T08:55:37.804Z,7.91
2023-01-17T08:58:46.497Z,8.11
2023-01-17T09:01:48.798Z,7.81
2023-01-17T09:05:11.444Z,7.94
2023-01-17T09:08:13.833Z,7.96
2023-01-17T09:11:18.239Z,8.25
2023-01-17T09:14:22.823Z,8.51
2023-01-17T09:17:29.298Z,8.57
2023-01-17T09:20:37.764Z,8.48
2023-01-17T09:23:39.931Z,8.08
2023-01-17T09:26:42.195Z,7.98
2023-01-17T09:29:44.422Z,8.23
2023-01-17T09:32:53.246Z,8.38
2023-01-17T09:36:01.293Z,8.72
2023-01-17T09:39:04.577Z,8.55
2023-01-17T09:42:19.304Z,8.57
2023-01-17T09:45:26.365Z,8.88
2023-01-17T09:48:36.366Z,8.56
2023-01-17T09:51:48.342Z,9.03
2023-01-17T09:55:08.493Z,8.77
2023-01-17T10:04:10.656Z,9.10
2023-01-17T10:08:02.017Z,8.98
2023-01-17T10:11:21.330Z,9.29
2023-01-17T10:15:08.435Z,9.29
2023-01-17T10:18:44.761Z,9.07
2023-01-17T10:22:07.496Z,9.45
2023-01-17T10:25:28.358Z,9.31
2023-01-17T10:28:35.655Z,9.30
2023-01-17T10:31:55.259Z,9.42
2023-01-17T10:35:01.432Z,9.42
2023-01-17T10:38:06.178Z,9.67
2023-01-17T10:41:18.499Z,9.92
2023-01-17T10:44:25.098Z,9.84
2023-01-17T10:47:31.277Z,10.09
2023-01-17T10:51:15.645Z,9.94
2023-01-17T10:59:50.388Z,9.78
2023-01-17T11:05:50.406Z,10.37
2023-01-17T11:09:10.847Z,10.55
2023-01-17T11:13:01.717Z,10.77
2023-01-17T11:16:58.165Z,10.63
2023-01-17T11:24:22.636Z,11.19
2023-01-17T11:28:04.554Z,11.23
2023-01-17T11:36:05.663Z,12.07
2023-01-17T11:40:00.937Z,12.84
2023-01-17T11:43:10.743Z,14.10
2023-01-17T11:46:23.709Z,14.60
2023-01-17T11:49:38.278Z,14.14
2023-01-17T11:53:07.951Z,14.38
2023-01-17T11:56:46.518Z,14.96
2023-01-17T12:00:13.670Z,15.27
2023-01-17T12:03:51.671Z,16.16
2023-01-17T12:06:59.766Z,16.10
2023-01-17T12:10:05.076Z,16.10
2023-01-17T12:13:48.756Z,16.87
2023-01-17T12:17:14.001Z,17.31
2023-01-17T12:20:35.547Z,18.03
2023-01-17T12:24:12.990Z,18.29
2023-01-17T12:28:19.718Z,17.95
2023-01-17T12:31:54.085Z,16.83
2023-01-17T12:35:00.775Z,16.08
2023-01-17T12:38:06.271Z,15.79
2023-01-17T12:41:18.427Z,15.75
2023-01-17T12:44:30.196Z,15.51
2023-01-17T12:47:36.245Z,14.87
2023-01-17T12:51:02.362Z,14.46
2023-01-17T12:54:23.599Z,14.14
2023-01-17T12:57:48.542Z,13.86
2023-01-17T13:01:12.607Z,13.80
2023-01-17T13:04:38.467Z,13.22
2023-01-17T13:07:47.335Z,12.98
2023-01-17T13:11:03.709Z,12.84
2023-01-17T13:14:09.038Z,12.45
2023-01-17T13:17:23.225Z,12.29
2023-01-17T13:20:33.744Z,12.09
2023-01-17T13:24:08.130Z,12.01
2023-01-17T13:27:32.068Z,11.80
2023-01-17T13:31:08.034Z,11.67
2023-01-17T13:34:32.804Z,11.59
2023-01-17T13:37:48.001Z,11.36
2023-01-17T13:41:01.034Z,11.03
2023-01-17T13:44:24.356Z,11.25
2023-01-17T13:47:27.581Z,11.00
2023-01-17T13:50:51.412Z,10.97
2023-01-17T13:54:30.939Z,10.88
2023-01-17T13:57:41.854Z,10.75
2023-01-17T14:00:44.018Z,10.65
2023-01-17T14:03:46.175Z,10.48
2023-01-17T14:06:55.498Z,10.45
2023-01-17T14:09:57.629Z,10.42
2023-01-17T14:13:02.803Z,10.18
2023-01-17T14:16:26.173Z,10.34
2023-01-17T14:19:28.434Z,10.25
2023-01-17T14:22:35.103Z,10.22
2023-01-17T14:25:41.418Z,10.05
2023-01-17T14:28:43.537Z,10.19
2023-01-17T14:31:46.579Z,10.04
2023-01-17T14:34:51.256Z,9.94
2023-01-17T14:37:54.320Z,9.81
2023-01-17T14:41:11.080Z,9.87
2023-01-17T14:44:13.277Z,9.83
2023-01-17T14:47:15.860Z,9.81
2023-01-17T14:50:17.983Z,9.83
2023-01-17T14:53:22.670Z,9.88
2023-01-17T14:56:26.918Z,9.74
2023-01-17T14:59:29.071Z,9.73
2023-01-17T15:02:31.528Z,9.45
2023-01-17T15:05:34.483Z,9.73
2023-01-17T15:08:36.762Z,9.57
2023-01-17T15:11:39.379Z,9.72
2023-01-17T15:14:45.817Z,9.52
2023-01-17T15:17:47.979Z,9.59
2023-01-17T15:20:57.128Z,9.59
2023-01-17T15:24:02.778Z,9.54
2023-01-17T15:27:06.449Z,9.69
2023-01-17T15:30:11.294Z,9.51
2023-01-17T15:33:16.998Z,9.56
2023-01-17T15:36:30.063Z,9.65
2023-01-17T15:39:34.968Z,9.62
2023-01-17T15:42:38.714Z,9.64
2023-01-17T15:45:41.271Z,9.52
2023-01-17T15:48:44.891Z,9.32
2023-01-17T15:52:14.623Z,9.44
2023-01-17T15:55:23.898Z,9.55
2023-01-17T15:58:28.954Z,9.41
2023-01-17T16:01:31.381Z,9.40
2023-01-17T16:04:34.859Z,9.43
2023-01-17T16:07:37.000Z,9.37
2023-01-17T16:10:39.498Z,9.29
2023-01-17T16:13:43.371Z,9.30
2023-01-17T16:16:52.426Z,9.21
2023-01-17T16:19:54.698Z,9.30
2023-01-17T16:22:57.198Z,9.28
2023-01-17T16:25:59.412Z,9.18
2023-01-17T16:29:01.573Z,9.34
2023-01-17T16:32:08.618Z,9.42
2023-01-17T16:35:19.034Z,9.31
2023-01-17T16:38:21.253Z,9.31
2023-01-17T16:41:23.481Z,9.25
2023-01-17T16:44:25.744Z,9.08
2023-01-17T16:47:27.962Z,9.12
2023-01-17T16:50:30.145Z,9.02
2023-01-17T16:53:32.378Z,9.01
2023-01-17T16:56:34.476Z,9.00
2023-01-17T16:59:49.963Z,8.90
2023-01-17T17:02:53.485Z,8.97
2023-01-17T17:05:59.346Z,8.90
2023-01-17T17:09:17.266Z,8.81
2023-01-17T17:12:19.385Z,8.92
2023-01-17T17:15:21.654Z,8.76
2023-01-17T17:18:23.962Z,8.68
2023-01-17T17:21:27.222Z,8.62
2023-01-17T17:24:29.348Z,8.66
2023-01-17T17:27:31.534Z,8.64
2023-01-17T17:30:34.553Z,8.50
2023-01-17T17:33:36.936Z,8.37
2023-01-17T17:36:39.474Z,8.44
2023-01-17T17:39:42.436Z,8.52
2023-01-17T17:42:44.544Z,8.20
2023-01-17T17:45:46.719Z,8.20
2023-01-17T17:48:49.126Z,8.23
2023-01-17T17:51:51.361Z,8.19
2023-01-17T17:54:53.685Z,8.34
2023-01-17T17:57:56.014Z,8.40
2023-01-17T18:01:01.833Z,8.46
2023-01-17T18:04:04.540Z,8.53
2023-01-17T18:07:06.751Z,8.61
2023-01-17T18:10:09.374Z,8.70
2023-01-17T18:13:11.577Z,8.72
2023-01-17T18:16:15.589Z,8.68
2023-01-17T18:19:23.478Z,8.58
2023-01-17T18:22:25.703Z,8.64
2023-01-17T18:25:27.894Z,8.51
2023-01-17T18:28:30.061Z,8.51
2023-01-17T18:31:32.443Z,8.50
2023-01-17T18:34:35.777Z,8.19
2023-01-17T18:37:38.025Z,8.25
2023-01-17T18:40:40.143Z,8.33
2023-01-17T18:43:42.654Z,8.38
2023-01-17T18:46:45.130Z,8.21
2023-01-17T18:49:53.611Z,8.21
2023-01-17T18:52:56.319Z,8.03
2023-01-17T18:56:00.969Z,8.13
2023-01-17T18:59:06.129Z,8.17
2023-01-17T19:02:09.044Z,8.03
2023-01-17T19:05:11.915Z,7.84
2023-01-17T19:08:15.729Z,7.69
2023-01-17T19:11:19.491Z,7.92
2023-01-17T19:14:21.638Z,7.99
2023-01-17T19:17:23.787Z,8.21
2023-01-17T19:20:25.881Z,7.95
2023-01-17T19:23:27.990Z,8.05
2023-01-17T19:26:30.206Z,8.12
2023-01-17T19:29:32.669Z,8.01
2023-01-17T19:32:34.987Z,7.88
2023-01-17T19:35:37.718Z,7.86
2023-01-17T19:38:40.247Z,8.00
2023-01-17T19:41:44.613Z,7.69
2023-01-17T19:44:46.824Z,7.84
2023-01-17T19:47:48.934Z,7.85
2023-01-17T19:50:51.101Z,8.18
2023-01-17T19:53:56.537Z,7.83
2023-01-17T19:56:58.734Z,7.90
2023-01-17T20:00:01.917Z,8.09
2023-01-17T20:03:05.603Z,7.95
2023-01-17T20:06:08.619Z,7.78
2023-01-17T20:09:12.937Z,7.92
2023-01-17T20:12:15.225Z,8.05
2023-01-17T20:15:17.498Z,8.27
2023-01-17T20:18:20.035Z,8.18
2023-01-17T20:21:23.880Z,7.99
2023-01-17T20:24:26.178Z,8.21
2023-01-17T20:27:28.351Z,8.16
2023-01-17T20:30:32.878Z,8.04
2023-01-17T20:33:36.238Z,8.17
2023-01-17T20:36:40.225Z,8.03
2023-01-17T20:39:42.418Z,7.95
2023-01-17T20:42:44.582Z,7.73
2023-01-17T20:45:54.292Z,7.60
2023-01-17T20:48:57.893Z,7.85
2023-01-17T20:52:00.942Z,7.46
2023-01-17T20:55:03.140Z,7.70
2023-01-17T20:58:05.574Z,7.71
2023-01-17T21:01:09.151Z,7.71
2023-01-17T21:04:11.546Z,7.97
2023-01-17T21:07:13.737Z,7.77
2023-01-17T21:10:16.423Z,7.29
2023-01-17T21:13:18.583Z,7.16
2023-01-17T21:16:22.934Z,7.59
2023-01-17T21:19:25.239Z,6.99
2023-01-17T21:22:28.851Z,7.01
2023-01-17T21:25:31.046Z,7.48
2023-01-17T21:28:37.216Z,7.19
2023-01-17T21:31:40.862Z,7.06
2023-01-17T21:34:43.006Z,6.91
2023-01-17T21:37:49.408Z,6.81
2023-01-17T21:40:56.391Z,6.99
2023-01-17T21:44:00.467Z,6.56
2023-01-17T21:47:03.380Z,6.56
2023-01-17T21:50:05.810Z,6.58
2023-01-17T21:53:09.933Z,7.17
2023-01-17T21:56:32.783Z,7.37
2023-01-17T21:59:35.036Z,6.47
2023-01-17T22:02:37.294Z,6.80
2023-01-17T22:05:39.522Z,6.61
2023-01-17T22:08:41.872Z,7.26
2023-01-17T22:11:44.031Z,6.64
2023-01-17T22:14:46.301Z,7.10
2023-01-17T22:17:48.469Z,7.15
2023-01-17T22:20:50.628Z,6.66
2023-01-17T22:23:55.069Z,6.74
2023-01-17T22:26:57.269Z,6.78
2023-01-17T22:29:59.446Z,6.99
2023-01-17T22:33:01.636Z,7.17
2023-01-17T22:36:05.040Z,6.13
2023-01-17T22:39:07.739Z,5.92
2023-01-17T22:42:10.016Z,6.63
2023-01-17T22:45:12.507Z,7.11
2023-01-17T22:48:14.637Z,7.23
2023-01-17T22:51:18.298Z,7.21
2023-01-17T22:54:20.505Z,7.24
2023-01-17T22:57:23.280Z,7.09
2023-01-17T23:00:25.417Z,6.80
2023-01-17T23:03:27.576Z,6.98
2023-01-17T23:06:37.915Z,6.46
2023-01-17T23:09:40.082Z,6.52
2023-01-17T23:12:42.239Z,6.89
2023-01-17T23:16:02.763Z,7.21
2023-01-17T23:19:25.183Z,6.91
2023-01-17T23:22:29.962Z,6.67
2023-01-17T23:25:32.104Z,7.14
2023-01-17T23:28:34.260Z,7.26
2023-01-17T23:31:36.751Z,7.21
2023-01-17T23:34:38.921Z,7.40
2023-01-17T23:37:59.822Z,7.54
2023-01-17T23:41:21.069Z,7.59
2023-01-17T23:44:23.434Z,6.90
2023-01-17T23:47:25.592Z,7.36
2023-01-17T23:50:27.867Z,7.04
2023-01-17T23:53:30.033Z,7.04
2023-01-17T23:56:32.169Z,7.09
2023-01-17T23:59:34.329Z,6.74
